sensor_id;sensor_type;location;lat;lon;timestamp;pressure;altitude;pressure_sealevel;temperature;humidity
6433;BME280;3249;42.690;23.260;2022-11-20T00:00:35;93672.66;;;18.01;97.17
6433;BME280;3249;42.690;23.260;2022-11-20T00:03:00;93665.53;;;18.12;96.43
6433;BME280;3249;42.690;23.260;2022-11-20T00:05:25;93675.66;;;18.13;97.27
6433;BME280;3249;42.690;23.260;2022-11-20T00:07:51;93686.06;;;18.13;98.91
6433;BME280;3249;42.690;23.260;2022-11-20T00:10:16;93682.19;;;18.11;99.01
6433;BME280;3249;42.690;23.260;2022-11-20T00:12:41;93688.97;;;18.12;98.06
6433;BME280;3249;42.690;23.260;2022-11-20T00:15:07;93675.94;;;18.12;99.47
6433;BME280;3249;42.690;23.260;2022-11-20T00:17:33;93685.84;;;18.10;99.09
6433;BME280;3249;42.690;23.260;2022-11-20T00:19:58;93647.84;;;18.09;99.42
6433;BME280;3249;42.690;23.260;2022-11-20T00:22:24;93642.97;;;18.02;95.95
6433;BME280;3249;42.690;23.260;2022-11-20T00:24:49;93668.56;;;18.19;93.56
6433;BME280;3249;42.690;23.260;2022-11-20T00:27:14;93687.47;;;18.30;90.16
6433;BME280;3249;42.690;23.260;2022-11-20T00:29:40;93661.41;;;18.35;89.00
6433;BME280;3249;42.690;23.260;2022-11-20T00:32:05;93670.47;;;18.37;92.44
6433;BME280;3249;42.690;23.260;2022-11-20T00:34:31;93666.69;;;18.25;95.39
6433;BME280;3249;42.690;23.260;2022-11-20T00:36:56;93679.50;;;18.21;96.30
6433;BME280;3249;42.690;23.260;2022-11-20T00:39:21;93693.00;;;18.23;96.73
6433;BME280;3249;42.690;23.260;2022-11-20T00:41:47;93670.44;;;18.13;97.17
6433;BME280;3249;42.690;23.260;2022-11-20T00:44:12;93685.03;;;18.15;98.37
6433;BME280;3249;42.690;23.260;2022-11-20T00:46:37;93700.16;;;18.13;98.71
6433;BME280;3249;42.690;23.260;2022-11-20T00:49:03;93687.97;;;18.08;100.00
6433;BME280;3249;42.690;23.260;2022-11-20T00:51:28;93690.88;;;18.01;100.00
6433;BME280;3249;42.690;23.260;2022-11-20T00:53:58;93676.31;;;18.00;100.00
6433;BME280;3249;42.690;23.260;2022-11-20T00:56:25;93693.47;;;18.01;98.45
6433;BME280;3249;42.690;23.260;2022-11-20T00:58:51;93689.84;;;18.02;100.00
6433;BME280;3249;42.690;23.260;2022-11-20T01:01:24;93687.28;;;17.97;100.00
6433;BME280;3249;42.690;23.260;2022-11-20T01:03:50;93695.66;;;17.94;100.00
6433;BME280;3249;42.690;23.260;2022-11-20T01:06:22;93676.41;;;17.90;100.00
6433;BME280;3249;42.690;23.260;2022-11-20T01:08:49;93680.06;;;17.89;100.00
6433;BME280;3249;42.690;23.260;2022-11-20T01:11:18;93667.03;;;17.89;100.00
6433;BME280;3249;42.690;23.260;2022-11-20T01:13:44;93675.63;;;17.90;100.00
6433;BME280;3249;42.690;23.260;2022-11-20T01:16:13;93670.75;;;17.83;100.00
6433;BME280;3249;42.690;23.260;2022-11-20T01:18:42;93658.78;;;17.82;100.00
6433;BME280;3249;42.690;23.260;2022-11-20T01:21:10;93651.00;;;17.77;100.00
6433;BME280;3249;42.690;23.260;2022-11-20T01:23:37;93648.91;;;17.79;100.00
6433;BME280;3249;42.690;23.260;2022-11-20T01:26:05;93645.59;;;17.74;100.00
6433;BME280;3249;42.690;23.260;2022-11-20T01:28:31;93662.94;;;17.83;100.00
6433;BME280;3249;42.690;23.260;2022-11-20T01:30:57;93648.31;;;17.87;98.07
6433;BME280;3249;42.690;23.260;2022-11-20T01:33:23;93644.31;;;17.95;99.21
6433;BME280;3249;42.690;23.260;2022-11-20T01:35:48;93630.09;;;17.87;97.80
6433;BME280;3249;42.690;23.260;2022-11-20T01:38:17;93624.75;;;17.97;94.78
6433;BME280;3249;42.690;23.260;2022-11-20T01:40:43;93633.91;;;17.95;95.39
6433;BME280;3249;42.690;23.260;2022-11-20T01:43:19;93636.19;;;18.01;96.82
6433;BME280;3249;42.690;23.260;2022-11-20T01:46:08;93638.25;;;18.04;95.69
6433;BME280;3249;42.690;23.260;2022-11-20T01:51:18;93657.59;;;17.98;96.63
6433;BME280;3249;42.690;23.260;2022-11-20T01:53:45;93662.22;;;18.01;97.92
6433;BME280;3249;42.690;23.260;2022-11-20T01:56:13;93675.56;;;18.00;98.89
6433;BME280;3249;42.690;23.260;2022-11-20T01:58:45;93663.28;;;18.00;99.05
6433;BME280;3249;42.690;23.260;2022-11-20T02:01:13;93670.63;;;17.98;99.37
6433;BME280;3249;42.690;23.260;2022-11-20T02:03:39;93678.19;;;17.95;99.06
6433;BME280;3249;42.690;23.260;2022-11-20T02:06:25;93668.88;;;17.89;99.18
6433;BME280;3249;42.690;23.260;2022-11-20T02:08:51;93658.78;;;17.82;99.98
6433;BME280;3249;42.690;23.260;2022-11-20T02:11:17;93668.97;;;17.79;100.00
6433;BME280;3249;42.690;23.260;2022-11-20T02:13:43;93666.69;;;17.72;100.00
6433;BME280;3249;42.690;23.260;2022-11-20T02:18:38;93668.81;;;17.65;100.00
6433;BME280;3249;42.690;23.260;2022-11-20T02:21:21;93664.69;;;17.64;100.00
6433;BME280;3249;42.690;23.260;2022-11-20T02:23:57;93669.88;;;17.64;100.00
6433;BME280;3249;42.690;23.260;2022-11-20T02:26:23;93655.31;;;17.63;100.00
6433;BME280;3249;42.690;23.260;2022-11-20T02:28:51;93669.38;;;17.62;100.00
6433;BME280;3249;42.690;23.260;2022-11-20T02:31:16;93663.19;;;17.58;100.00
6433;BME280;3249;42.690;23.260;2022-11-20T02:33:42;93667.59;;;17.58;100.00
6433;BME280;3249;42.690;23.260;2022-11-20T02:36:11;93658.03;;;17.48;100.00
6433;BME280;3249;42.690;23.260;2022-11-20T02:38:39;93681.66;;;17.57;100.00
6433;BME280;3249;42.690;23.260;2022-11-20T02:41:05;93692.63;;;17.54;100.00
6433;BME280;3249;42.690;23.260;2022-11-20T02:43:30;93674.88;;;17.56;100.00
6433;BME280;3249;42.690;23.260;2022-11-20T02:45:55;93688.19;;;17.54;100.00
6433;BME280;3249;42.690;23.260;2022-11-20T02:48:21;93661.75;;;17.37;100.00
6433;BME280;3249;42.690;23.260;2022-11-20T02:50:46;93666.91;;;17.47;100.00
6433;BME280;3249;42.690;23.260;2022-11-20T02:53:12;93681.78;;;17.42;100.00
6433;BME280;3249;42.690;23.260;2022-11-20T02:55:37;93685.69;;;17.39;100.00
6433;BME280;3249;42.690;23.260;2022-11-20T02:58:03;93691.19;;;17.33;100.00
6433;BME280;3249;42.690;23.260;2022-11-20T03:00:28;93687.31;;;17.30;100.00
6433;BME280;3249;42.690;23.260;2022-11-20T03:02:53;93694.81;;;17.32;100.00
6433;BME280;3249;42.690;23.260;2022-11-20T03:05:19;93688.88;;;17.31;100.00
6433;BME280;3249;42.690;23.260;2022-11-20T03:07:44;93687.84;;;17.27;100.00
6433;BME280;3249;42.690;23.260;2022-11-20T03:10:10;93695.13;;;17.25;100.00
6433;BME280;3249;42.690;23.260;2022-11-20T03:12:35;93692.03;;;17.23;100.00
6433;BME280;3249;42.690;23.260;2022-11-20T03:15:00;93697.72;;;17.25;100.00
6433;BME280;3249;42.690;23.260;2022-11-20T03:17:26;93694.13;;;17.21;100.00
6433;BME280;3249;42.690;23.260;2022-11-20T03:19:51;93686.59;;;17.20;100.00
6433;BME280;3249;42.690;23.260;2022-11-20T03:22:17;93675.94;;;17.16;100.00
6433;BME280;3249;42.690;23.260;2022-11-20T03:24:42;93681.47;;;17.10;100.00
6433;BME280;3249;42.690;23.260;2022-11-20T03:27:07;93681.47;;;17.10;100.00
6433;BME280;3249;42.690;23.260;2022-11-20T03:29:35;93689.25;;;17.10;100.00
6433;BME280;3249;42.690;23.260;2022-11-20T03:32:00;93683.56;;;17.03;100.00
6433;BME280;3249;42.690;23.260;2022-11-20T03:34:25;93705.09;;;17.13;100.00
6433;BME280;3249;42.690;23.260;2022-11-20T03:36:51;93697.56;;;17.12;100.00
6433;BME280;3249;42.690;23.260;2022-11-20T03:39:16;93703.59;;;17.07;100.00
6433;BME280;3249;42.690;23.260;2022-11-20T03:41:42;93713.44;;;17.10;100.00
6433;BME280;3249;42.690;23.260;2022-11-20T03:44:10;93722.25;;;17.14;100.00
6433;BME280;3249;42.690;23.260;2022-11-20T03:46:36;93730.63;;;17.06;100.00
6433;BME280;3249;42.690;23.260;2022-11-20T03:49:02;93721.78;;;17.02;100.00
6433;BME280;3249;42.690;23.260;2022-11-20T03:51:35;93719.75;;;16.99;100.00
6433;BME280;3249;42.690;23.260;2022-11-20T03:54:04;93708.84;;;16.97;100.00
6433;BME280;3249;42.690;23.260;2022-11-20T03:56:32;93728.00;;;17.06;100.00
6433;BME280;3249;42.690;23.260;2022-11-20T03:58:59;93731.13;;;17.08;100.00
6433;BME280;3249;42.690;23.260;2022-11-20T04:01:27;93736.84;;;17.10;100.00
6433;BME280;3249;42.690;23.260;2022-11-20T04:03:54;93736.88;;;17.05;100.00
6433;BME280;3249;42.690;23.260;2022-11-20T04:06:23;93741.03;;;17.06;100.00
6433;BME280;3249;42.690;23.260;2022-11-20T04:08:49;93754.63;;;16.93;100.00
6433;BME280;3249;42.690;23.260;2022-11-20T04:11:15;93741.31;;;17.00;100.00
6433;BME280;3249;42.690;23.260;2022-11-20T04:13:42;93724.44;;;16.97;100.00
6433;BME280;3249;42.690;23.260;2022-11-20T04:16:09;93732.19;;;17.02;100.00
6433;BME280;3249;42.690;23.260;2022-11-20T04:18:35;93727.84;;;16.93;100.00
6433;BME280;3249;42.690;23.260;2022-11-20T04:21:01;93712.53;;;16.86;100.00
6433;BME280;3249;42.690;23.260;2022-11-20T04:23:26;93724.47;;;16.92;100.00
6433;BME280;3249;42.690;23.260;2022-11-20T04:25:52;93719.50;;;16.96;100.00
6433;BME280;3249;42.690;23.260;2022-11-20T04:28:17;93722.47;;;16.79;100.00
6433;BME280;3249;42.690;23.260;2022-11-20T04:30:43;93724.53;;;16.77;100.00
6433;BME280;3249;42.690;23.260;2022-11-20T04:33:09;93728.88;;;16.92;100.00
6433;BME280;3249;42.690;23.260;2022-11-20T04:35:35;93724.19;;;16.94;100.00
6433;BME280;3249;42.690;23.260;2022-11-20T04:38:01;93724.69;;;16.96;100.00
6433;BME280;3249;42.690;23.260;2022-11-20T04:40:28;93735.88;;;16.96;100.00
6433;BME280;3249;42.690;23.260;2022-11-20T04:42:54;93721.34;;;16.95;100.00
6433;BME280;3249;42.690;23.260;2022-11-20T04:45:19;93724.69;;;16.96;100.00
6433;BME280;3249;42.690;23.260;2022-11-20T04:47:44;93720.06;;;16.93;100.00
6433;BME280;3249;42.690;23.260;2022-11-20T04:50:10;93705.25;;;16.88;100.00
6433;BME280;3249;42.690;23.260;2022-11-20T04:52:35;93687.13;;;16.73;100.00
6433;BME280;3249;42.690;23.260;2022-11-20T04:55:01;93704.72;;;16.91;100.00
6433;BME280;3249;42.690;23.260;2022-11-20T04:57:26;93686.06;;;16.79;100.00
6433;BME280;3249;42.690;23.260;2022-11-20T04:59:51;93686.25;;;16.88;100.00
6433;BME280;3249;42.690;23.260;2022-11-20T05:02:17;93684.47;;;16.83;100.00
6433;BME280;3249;42.690;23.260;2022-11-20T05:04:42;93698.50;;;16.82;100.00
6433;BME280;3249;42.690;23.260;2022-11-20T05:07:08;93669.94;;;16.77;100.00
6433;BME280;3249;42.690;23.260;2022-11-20T05:09:33;93676.97;;;16.77;100.00
6433;BME280;3249;42.690;23.260;2022-11-20T05:11:59;93670.22;;;16.76;100.00
6433;BME280;3249;42.690;23.260;2022-11-20T05:14:24;93678.53;;;16.78;100.00
6433;BME280;3249;42.690;23.260;2022-11-20T05:16:49;93671.22;;;16.80;100.00
6433;BME280;3249;42.690;23.260;2022-11-20T05:19:15;93672.31;;;16.74;100.00
6433;BME280;3249;42.690;23.260;2022-11-20T05:21:40;93690.25;;;16.75;100.00
6433;BME280;3249;42.690;23.260;2022-11-20T05:24:06;93669.69;;;16.79;100.00
6433;BME280;3249;42.690;23.260;2022-11-20T05:26:32;93680.88;;;16.79;100.00
6433;BME280;3249;42.690;23.260;2022-11-20T05:28:57;93693.31;;;16.82;100.00
6433;BME280;3249;42.690;23.260;2022-11-20T05:31:24;93696.41;;;16.89;100.00
6433;BME280;3249;42.690;23.260;2022-11-20T05:33:50;93700.84;;;16.89;100.00
6433;BME280;3249;42.690;23.260;2022-11-20T05:36:16;93704.72;;;16.86;100.00
6433;BME280;3249;42.690;23.260;2022-11-20T05:38:42;93700.88;;;16.79;100.00
6433;BME280;3249;42.690;23.260;2022-11-20T05:41:17;93694.88;;;16.78;100.00
6433;BME280;3249;42.690;23.260;2022-11-20T05:43:45;93690.25;;;16.75;100.00
6433;BME280;3249;42.690;23.260;2022-11-20T05:46:13;93700.59;;;16.80;100.00
6433;BME280;3249;42.690;23.260;2022-11-20T05:48:40;93701.97;;;16.73;100.00
6433;BME280;3249;42.690;23.260;2022-11-20T05:51:09;93711.28;;;16.79;100.00
6433;BME280;3249;42.690;23.260;2022-11-20T05:53:35;93710.03;;;16.71;100.00
6433;BME280;3249;42.690;23.260;2022-11-20T05:56:03;93704.78;;;16.76;100.00
6433;BME280;3249;42.690;23.260;2022-11-20T05:58:29;93719.34;;;16.77;100.00
6433;BME280;3249;42.690;23.260;2022-11-20T06:01:13;93722.47;;;16.79;100.00
6433;BME280;3249;42.690;23.260;2022-11-20T06:03:39;93724.53;;;16.77;100.00
6433;BME280;3249;42.690;23.260;2022-11-20T06:06:06;93731.13;;;16.55;100.00
6433;BME280;3249;42.690;23.260;2022-11-20T06:08:31;93746.75;;;16.50;100.00
6433;BME280;3249;42.690;23.260;2022-11-20T06:10:57;93748.50;;;16.64;100.00
6433;BME280;3249;42.690;23.260;2022-11-20T06:13:23;93739.06;;;16.78;100.00
6433;BME280;3249;42.690;23.260;2022-11-20T06:15:52;93752.56;;;16.85;100.00
6433;BME280;3249;42.690;23.260;2022-11-20T06:18:18;93748.66;;;16.93;100.00
6433;BME280;3249;42.690;23.260;2022-11-20T06:20:44;93745.84;;;16.79;100.00
6433;BME280;3249;42.690;23.260;2022-11-20T06:23:10;93748.41;;;16.89;100.00
6433;BME280;3249;42.690;23.260;2022-11-20T06:25:40;93738.25;;;16.93;100.00
6433;BME280;3249;42.690;23.260;2022-11-20T06:28:05;93748.09;;;16.96;100.00
6433;BME280;3249;42.690;23.260;2022-11-20T06:30:31;93757.16;;;17.08;100.00
6433;BME280;3249;42.690;23.260;2022-11-20T06:32:56;93756.63;;;17.06;100.00
6433;BME280;3249;42.690;23.260;2022-11-20T06:35:21;93769.13;;;17.04;100.00
6433;BME280;3249;42.690;23.260;2022-11-20T06:37:47;93757.72;;;17.00;100.00
6433;BME280;3249;42.690;23.260;2022-11-20T06:40:12;93764.00;;;16.89;100.00
6433;BME280;3249;42.690;23.260;2022-11-20T06:42:38;93781.06;;;17.10;100.00
6433;BME280;3249;42.690;23.260;2022-11-20T06:45:03;93760.31;;;17.00;100.00
6433;BME280;3249;42.690;23.260;2022-11-20T06:47:29;93770.59;;;17.20;100.00
6433;BME280;3249;42.690;23.260;2022-11-20T06:49:55;93759.59;;;17.33;100.00
6433;BME280;3249;42.690;23.260;2022-11-20T06:52:20;93748.13;;;17.39;100.00
6433;BME280;3249;42.690;23.260;2022-11-20T06:54:45;93759.19;;;17.60;100.00
6433;BME280;3249;42.690;23.260;2022-11-20T06:57:11;93767.44;;;17.72;100.00
6433;BME280;3249;42.690;23.260;2022-11-20T06:59:36;93775.75;;;17.74;100.00
6433;BME280;3249;42.690;23.260;2022-11-20T07:02:02;93773.91;;;17.79;100.00
6433;BME280;3249;42.690;23.260;2022-11-20T07:04:27;93778.25;;;17.89;100.00
6433;BME280;3249;42.690;23.260;2022-11-20T07:06:52;93779.47;;;17.96;100.00
6433;BME280;3249;42.690;23.260;2022-11-20T07:09:18;93748.50;;;17.61;100.00
6433;BME280;3249;42.690;23.260;2022-11-20T07:11:43;93773.84;;;17.84;100.00
6433;BME280;3249;42.690;23.260;2022-11-20T07:14:08;93762.38;;;17.85;100.00
6433;BME280;3249;42.690;23.260;2022-11-20T07:16:34;93768.69;;;17.79;100.00
6433;BME280;3249;42.690;23.260;2022-11-20T07:18:59;93771.91;;;17.66;100.00
6433;BME280;3249;42.690;23.260;2022-11-20T07:21:25;93766.72;;;17.61;100.00
6433;BME280;3249;42.690;23.260;2022-11-20T07:23:50;93746.53;;;17.48;100.00
6433;BME280;3249;42.690;23.260;2022-11-20T07:26:15;93779.41;;;17.29;100.00
6433;BME280;3249;42.690;23.260;2022-11-20T07:28:44;93759.19;;;17.16;100.00
6433;BME280;3249;42.690;23.260;2022-11-20T07:31:09;93767.97;;;17.25;100.00
6433;BME280;3249;42.690;23.260;2022-11-20T07:33:34;93767.03;;;17.06;100.00
6433;BME280;3249;42.690;23.260;2022-11-20T07:36:00;93764.38;;;17.16;100.00
6433;BME280;3249;42.690;23.260;2022-11-20T07:38:26;93760.53;;;17.09;100.00
6433;BME280;3249;42.690;23.260;2022-11-20T07:40:56;93778.94;;;17.17;100.00
6433;BME280;3249;42.690;23.260;2022-11-20T07:43:22;93775.63;;;17.07;100.00
6433;BME280;3249;42.690;23.260;2022-11-20T07:45:48;93772.91;;;17.27;100.00
6433;BME280;3249;42.690;23.260;2022-11-20T07:48:13;93749.41;;;16.93;100.00
6433;BME280;3249;42.690;23.260;2022-11-20T07:50:39;93770.19;;;16.98;100.00
6433;BME280;3249;42.690;23.260;2022-11-20T07:53:04;93784.25;;;16.92;100.00
6433;BME280;3249;42.690;23.260;2022-11-20T07:55:30;93776.94;;;17.04;100.00
6433;BME280;3249;42.690;23.260;2022-11-20T07:57:56;93789.81;;;17.29;100.00
6433;BME280;3249;42.690;23.260;2022-11-20T08:00:26;93786.72;;;17.27;100.00
6433;BME280;3249;42.690;23.260;2022-11-20T08:02:51;93809.03;;;17.43;100.00
6433;BME280;3249;42.690;23.260;2022-11-20T08:05:17;93810.53;;;17.54;100.00
6433;BME280;3249;42.690;23.260;2022-11-20T08:07:43;93807.09;;;17.59;100.00
6433;BME280;3249;42.690;23.260;2022-11-20T08:10:11;93823.16;;;17.71;100.00
6433;BME280;3249;42.690;23.260;2022-11-20T08:12:44;93813.84;;;17.65;100.00
6433;BME280;3249;42.690;23.260;2022-11-20T08:15:28;93809.38;;;17.70;100.00
6433;BME280;3249;42.690;23.260;2022-11-20T08:18:01;93801.00;;;17.78;100.00
6433;BME280;3249;42.690;23.260;2022-11-20T08:20:27;93820.50;;;17.81;100.00
6433;BME280;3249;42.690;23.260;2022-11-20T08:22:52;93785.94;;;17.70;100.00
6433;BME280;3249;42.690;23.260;2022-11-20T08:25:22;93803.66;;;17.68;100.00
6433;BME280;3249;42.690;23.260;2022-11-20T08:27:47;93817.41;;;17.74;100.00
6433;BME280;3249;42.690;23.260;2022-11-20T08:30:13;93808.84;;;17.68;100.00
6433;BME280;3249;42.690;23.260;2022-11-20T08:32:38;93812.47;;;17.72;100.00
6433;BME280;3249;42.690;23.260;2022-11-20T08:35:04;93810.09;;;17.76;100.00
6433;BME280;3249;42.690;23.260;2022-11-20T08:37:30;93809.16;;;17.62;100.00
6433;BME280;3249;42.690;23.260;2022-11-20T08:39:55;93805.19;;;17.74;100.00
6433;BME280;3249;42.690;23.260;2022-11-20T08:42:22;93822.31;;;17.80;100.00
6433;BME280;3249;42.690;23.260;2022-11-20T08:44:47;93817.81;;;17.52;100.00
6433;BME280;3249;42.690;23.260;2022-11-20T08:47:13;93829.34;;;17.26;100.00
6433;BME280;3249;42.690;23.260;2022-11-20T08:49:38;93830.53;;;17.00;100.00
6433;BME280;3249;42.690;23.260;2022-11-20T08:52:03;93825.91;;;16.87;100.00
6433;BME280;3249;42.690;23.260;2022-11-20T08:54:29;93820.22;;;16.70;100.00
6433;BME280;3249;42.690;23.260;2022-11-20T08:56:54;93811.13;;;16.68;100.00
6433;BME280;3249;42.690;23.260;2022-11-20T08:59:19;93801.03;;;16.56;100.00
6433;BME280;3249;42.690;23.260;2022-11-20T09:01:45;93807.53;;;16.39;100.00
6433;BME280;3249;42.690;23.260;2022-11-20T09:04:10;93807.28;;;16.35;100.00
6433;BME280;3249;42.690;23.260;2022-11-20T09:06:36;93804.44;;;16.22;100.00
6433;BME280;3249;42.690;23.260;2022-11-20T09:09:02;93804.19;;;16.13;100.00
6433;BME280;3249;42.690;23.260;2022-11-20T09:11:27;93824.44;;;16.11;100.00
6433;BME280;3249;42.690;23.260;2022-11-20T09:13:53;93801.34;;;15.95;100.00
6433;BME280;3249;42.690;23.260;2022-11-20T09:16:18;93830.66;;;16.05;100.00
6433;BME280;3249;42.690;23.260;2022-11-20T09:18:43;93834.81;;;15.96;100.00
6433;BME280;3249;42.690;23.260;2022-11-20T09:21:10;93824.97;;;15.88;100.00
6433;BME280;3249;42.690;23.260;2022-11-20T09:23:37;93819.00;;;15.78;100.00
6433;BME280;3249;42.690;23.260;2022-11-20T09:26:08;93815.56;;;15.67;100.00
6433;BME280;3249;42.690;23.260;2022-11-20T09:28:34;93813.25;;;15.56;100.00
6433;BME280;3249;42.690;23.260;2022-11-20T09:31:00;93808.81;;;15.51;100.00
6433;BME280;3249;42.690;23.260;2022-11-20T09:33:25;93801.81;;;15.57;100.00
6433;BME280;3249;42.690;23.260;2022-11-20T09:35:51;93785.75;;;15.60;100.00
6433;BME280;3249;42.690;23.260;2022-11-20T09:38:16;93768.09;;;15.72;100.00
6433;BME280;3249;42.690;23.260;2022-11-20T09:41:02;93763.69;;;15.77;100.00
6433;BME280;3249;42.690;23.260;2022-11-20T09:43:49;93759.28;;;15.83;100.00
6433;BME280;3249;42.690;23.260;2022-11-20T09:46:29;93750.22;;;15.80;100.00
6433;BME280;3249;42.690;23.260;2022-11-20T09:54:30;93738.75;;;16.01;100.00
6433;BME280;3249;42.690;23.260;2022-11-20T09:57:00;93739.78;;;16.05;100.00
6433;BME280;3249;42.690;23.260;2022-11-20T10:04:59;93718.06;;;16.65;100.00
6433;BME280;3249;42.690;23.260;2022-11-20T10:10:34;93750.97;;;17.43;100.00
6433;BME280;3249;42.690;23.260;2022-11-20T10:16:18;93773.56;;;17.52;100.00
6433;BME280;3249;42.690;23.260;2022-11-20T10:30:12;93799.91;;;17.46;100.00
6433;BME280;3249;42.690;23.260;2022-11-20T10:32:43;93795.41;;;17.56;100.00
6433;BME280;3249;42.690;23.260;2022-11-20T10:37:43;93785.69;;;17.18;100.00
6433;BME280;3249;42.690;23.260;2022-11-20T10:40:31;93764.53;;;16.91;100.00
6433;BME280;3249;42.690;23.260;2022-11-20T10:43:02;93770.59;;;16.67;100.00
6433;BME280;3249;42.690;23.260;2022-11-20T10:45:38;93772.19;;;16.33;100.00
6433;BME280;3249;42.690;23.260;2022-11-20T10:48:15;93772.78;;;16.10;100.00
6433;BME280;3249;42.690;23.260;2022-11-20T10:50:53;93770.69;;;16.02;100.00
6433;BME280;3249;42.690;23.260;2022-11-20T10:56:24;93791.47;;;15.82;100.00
6433;BME280;3249;42.690;23.260;2022-11-20T10:59:10;93761.09;;;15.52;100.00
6433;BME280;3249;42.690;23.260;2022-11-20T11:01:41;93809.06;;;15.45;100.00
6433;BME280;3249;42.690;23.260;2022-11-20T11:04:23;93848.38;;;15.17;100.00
6433;BME280;3249;42.690;23.260;2022-11-20T11:06:55;93827.94;;;14.64;100.00
6433;BME280;3249;42.690;23.260;2022-11-20T11:09:32;93827.81;;;14.12;100.00
6433;BME280;3249;42.690;23.260;2022-11-20T11:11:58;93804.09;;;13.83;100.00
6433;BME280;3249;42.690;23.260;2022-11-20T11:14:23;93786.81;;;13.62;100.00
6433;BME280;3249;42.690;23.260;2022-11-20T11:19:16;93783.16;;;13.58;100.00
6433;BME280;3249;42.690;23.260;2022-11-20T11:21:51;93773.47;;;13.44;100.00
6433;BME280;3249;42.690;23.260;2022-11-20T11:24:26;93770.84;;;13.39;100.00
6433;BME280;3249;42.690;23.260;2022-11-20T11:27:02;93752.97;;;13.32;100.00
6433;BME280;3249;42.690;23.260;2022-11-20T11:29:32;93741.56;;;13.28;100.00
6433;BME280;3249;42.690;23.260;2022-11-20T11:32:14;93755.81;;;13.36;100.00
6433;BME280;3249;42.690;23.260;2022-11-20T11:34:40;93752.16;;;13.32;100.00
6433;BME280;3249;42.690;23.260;2022-11-20T11:37:13;93754.78;;;13.37;100.00
6433;BME280;3249;42.690;23.260;2022-11-20T11:39:41;93767.00;;;13.41;100.00
6433;BME280;3249;42.690;23.260;2022-11-20T11:42:12;93774.84;;;13.51;100.00
6433;BME280;3249;42.690;23.260;2022-11-20T11:44:44;93778.78;;;13.59;100.00
6433;BME280;3249;42.690;23.260;2022-11-20T11:47:58;93769.06;;;13.71;100.00
6433;BME280;3249;42.690;23.260;2022-11-20T11:50:28;93759.75;;;13.70;100.00
6433;BME280;3249;42.690;23.260;2022-11-20T11:53:03;93755.44;;;13.85;100.00
6433;BME280;3249;42.690;23.260;2022-11-20T11:55:44;93758.34;;;13.89;100.00
6433;BME280;3249;42.690;23.260;2022-11-20T11:58:20;93777.50;;;13.93;100.00
6433;BME280;3249;42.690;23.260;2022-11-20T12:03:55;93774.97;;;14.03;100.00
6433;BME280;3249;42.690;23.260;2022-11-20T12:06:25;93776.06;;;14.12;100.00
6433;BME280;3249;42.690;23.260;2022-11-20T12:11:30;93761.44;;;14.23;100.00
6433;BME280;3249;42.690;23.260;2022-11-20T12:16:31;93771.81;;;14.28;100.00
6433;BME280;3249;42.690;23.260;2022-11-20T12:18:58;93766.41;;;14.34;100.00
6433;BME280;3249;42.690;23.260;2022-11-20T12:26:48;93768.44;;;14.32;100.00
6433;BME280;3249;42.690;23.260;2022-11-20T12:29:29;93771.03;;;14.32;100.00
6433;BME280;3249;42.690;23.260;2022-11-20T12:42:56;93716.72;;;14.47;100.00
6433;BME280;3249;42.690;23.260;2022-11-20T12:48:41;93712.91;;;14.65;100.00
6433;BME280;3249;42.690;23.260;2022-11-20T12:54:04;93726.16;;;14.73;100.00
6433;BME280;3249;42.690;23.260;2022-11-20T13:01:48;93719.78;;;14.34;100.00
6433;BME280;3249;42.690;23.260;2022-11-20T13:06:44;93659.50;;;14.39;100.00
6433;BME280;3249;42.690;23.260;2022-11-20T13:09:13;93652.88;;;14.11;100.00
6433;BME280;3249;42.690;23.260;2022-11-20T13:17:04;93721.34;;;13.25;100.00
6433;BME280;3249;42.690;23.260;2022-11-20T13:19:31;93715.22;;;13.05;100.00
6433;BME280;3249;42.690;23.260;2022-11-20T13:21:57;93708.75;;;12.81;100.00
6433;BME280;3249;42.690;23.260;2022-11-20T13:24:50;93717.91;;;12.67;100.00
6433;BME280;3249;42.690;23.260;2022-11-20T13:29:44;93705.09;;;12.77;100.00
6433;BME280;3249;42.690;23.260;2022-11-20T13:34:39;93700.50;;;13.05;100.00
6433;BME280;3249;42.690;23.260;2022-11-20T13:37:04;93704.41;;;13.08;100.00
6433;BME280;3249;42.690;23.260;2022-11-20T13:39:35;93710.63;;;13.12;100.00
6433;BME280;3249;42.690;23.260;2022-11-20T13:42:03;93718.72;;;13.20;100.00
6433;BME280;3249;42.690;23.260;2022-11-20T13:44:48;93718.94;;;13.14;100.00
6433;BME280;3249;42.690;23.260;2022-11-20T13:47:28;93727.25;;;13.21;100.00
6433;BME280;3249;42.690;23.260;2022-11-20T13:49:56;93727.13;;;13.06;100.00
6433;BME280;3249;42.690;23.260;2022-11-20T13:52:59;93719.41;;;13.11;100.00
6433;BME280;3249;42.690;23.260;2022-11-20T13:55:54;93718.94;;;13.14;100.00
6433;BME280;3249;42.690;23.260;2022-11-20T14:01:23;93729.53;;;13.44;100.00
6433;BME280;3249;42.690;23.260;2022-11-20T14:03:50;93740.72;;;13.54;100.00
6433;BME280;3249;42.690;23.260;2022-11-20T14:06:28;93743.06;;;13.56;100.00
6433;BME280;3249;42.690;23.260;2022-11-20T14:08:55;93751.06;;;13.54;100.00
6433;BME280;3249;42.690;23.260;2022-11-20T14:11:23;93754.47;;;13.60;100.00
6433;BME280;3249;42.690;23.260;2022-11-20T14:16:33;93740.44;;;13.51;100.00
6433;BME280;3249;42.690;23.260;2022-11-20T14:21:48;93751.16;;;13.64;100.00
6433;BME280;3249;42.690;23.260;2022-11-20T14:24:18;93731.38;;;13.48;100.00
6433;BME280;3249;42.690;23.260;2022-11-20T14:26:45;93736.88;;;13.25;100.00
6433;BME280;3249;42.690;23.260;2022-11-20T14:29:19;93723.59;;;13.17;100.00
6433;BME280;3249;42.690;23.260;2022-11-20T14:31:45;93754.69;;;13.22;100.00
6433;BME280;3249;42.690;23.260;2022-11-20T14:34:18;93778.88;;;13.42;100.00
6433;BME280;3249;42.690;23.260;2022-11-20T14:36:44;93771.69;;;13.44;100.00
6433;BME280;3249;42.690;23.260;2022-11-20T14:39:12;93752.78;;;13.12;100.00
6433;BME280;3249;42.690;23.260;2022-11-20T14:41:50;93754.38;;;12.97;100.00
6433;BME280;3249;42.690;23.260;2022-11-20T14:44:17;93755.47;;;13.01;100.00
6433;BME280;3249;42.690;23.260;2022-11-20T14:46:42;93758.66;;;13.08;100.00